Decoded Metar for KATY (WATERTOWN in SD, USA) (IATA:ATY) | Meteo·Mobile Aviation Weather
aviador You're here:

KATY Decoded Metar

WATERTOWN in SD, USA
Report Time2020-02-25 21:53:00
UTC Time2020-02-25 22:17:04
Flight Rules mvfr MVFR
Wind340° at 20 kt
W.Decomp.*RWY 35: 19.2 kt HW 5.5 kt LCW
RWY 30: 16.6 kt HW 11.2 kt RCW
Visibility9999 m
Phenomena:N/A
Clouds:Overcast 011 Hf
Expected CloudBase > 800 ft AGL from Temp-Dew spread
Ceiling1,100 ft
Temp-5°C (ISA -17)
Dew Point-7°C (86% RH)
AAT-15.0°C
QNH1028 hPa
Density Alt-745 ft
Elevation1,745 ft
Report Wrong Elevation
Raw Report
KATY 252153Z AUTO 34020KT 10SM OVC011 M05/M07 A3037 RMK AO2 PK WND
35028/2109 SLP313 T10501072=

Extra information for KATY:More info

Metar Taf Metar & Taf Last 4 Metars F.Rules Stats Wind Profile Meteogram Temp Stats Airport Information Weather charts Add Link Nearby VenuesMetar ALERT Operation Metar Decoded Social comments

AIRNAV info for KATY